createdAt,value
2023-03-05T00:00:05.482Z,51.73
2023-03-05T00:02:36.367Z,51.66
2023-03-05T00:05:08.209Z,51.74
2023-03-05T00:07:39.235Z,51.74
2023-03-05T00:10:11.902Z,51.65
2023-03-05T00:12:42.702Z,51.92
2023-03-05T00:15:14.568Z,51.83
2023-03-05T00:17:45.780Z,51.83
2023-03-05T00:20:17.543Z,51.81
2023-03-05T00:22:48.182Z,51.84
2023-03-05T00:25:19.210Z,51.92
2023-03-05T00:27:49.883Z,51.74
2023-03-05T00:30:20.691Z,51.75
2023-03-05T00:32:51.450Z,51.87
2023-03-05T00:35:22.522Z,51.84
2023-03-05T00:37:53.178Z,51.78
2023-03-05T00:40:26.996Z,51.87
2023-03-05T00:42:56.158Z,51.89
2023-03-05T00:45:27.336Z,51.91
2023-03-05T00:47:58.278Z,52.03
2023-03-05T00:50:29.117Z,52.02
2023-03-05T00:52:59.837Z,52.15
2023-03-05T00:55:30.699Z,52.11
2023-03-05T00:58:01.425Z,52.21
2023-03-05T01:00:32.179Z,52.16
2023-03-05T01:03:03.111Z,52.17
2023-03-05T01:05:34.184Z,52.24
2023-03-05T01:08:05.403Z,52.29
2023-03-05T01:10:36.334Z,52.31
2023-03-05T01:13:07.034Z,52.43
2023-03-05T01:15:37.801Z,52.34
2023-03-05T01:18:09.024Z,52.43
2023-03-05T01:20:39.734Z,52.41
2023-03-05T01:23:10.522Z,52.32
2023-03-05T01:25:41.218Z,52.38
2023-03-05T01:28:12.007Z,52.33
2023-03-05T01:30:42.677Z,52.42
2023-03-05T01:33:13.320Z,52.35
2023-03-05T01:35:44.348Z,52.45
2023-03-05T01:38:15.572Z,52.42
2023-03-05T01:40:46.615Z,52.53
2023-03-05T01:43:27.278Z,52.65
2023-03-05T01:46:28.858Z,52.74
2023-03-05T01:49:16.673Z,52.72
2023-03-05T01:51:54.033Z,52.80
2023-03-05T01:54:27.790Z,52.81
2023-03-05T01:57:00.724Z,52.83
2023-03-05T01:59:32.099Z,52.91
2023-03-05T02:02:04.181Z,52.76
2023-03-05T02:04:42.147Z,52.89
2023-03-05T02:07:15.025Z,52.87
2023-03-05T02:09:45.879Z,52.92
2023-03-05T02:12:17.550Z,52.97
2023-03-05T02:14:51.464Z,52.93
2023-03-05T02:17:20.520Z,52.93
2023-03-05T02:19:56.526Z,52.88
2023-03-05T02:22:27.802Z,52.88
2023-03-05T02:24:58.595Z,52.93
2023-03-05T02:27:35.106Z,52.97
2023-03-05T02:30:06.742Z,53.04
2023-03-05T02:32:37.422Z,52.97
2023-03-05T02:35:11.574Z,52.94
2023-03-05T02:37:43.046Z,53.05
2023-03-05T02:40:16.242Z,52.90
2023-03-05T02:42:47.978Z,52.93
2023-03-05T02:45:18.868Z,52.93
2023-03-05T02:47:49.664Z,53.00
2023-03-05T02:50:20.791Z,52.95
2023-03-05T02:52:51.512Z,53.07
2023-03-05T02:55:22.362Z,52.97
2023-03-05T02:57:53.102Z,52.96
2023-03-05T03:00:26.426Z,52.89
2023-03-05T03:02:57.203Z,52.90
2023-03-05T03:05:27.939Z,52.82
2023-03-05T03:07:58.883Z,52.86
2023-03-05T03:10:29.580Z,52.86
2023-03-05T03:13:00.566Z,52.93
2023-03-05T03:15:31.572Z,52.87
2023-03-05T03:18:02.509Z,52.77
2023-03-05T03:20:35.043Z,52.91
2023-03-05T03:23:06.338Z,52.92
2023-03-05T03:25:37.488Z,52.96
2023-03-05T03:28:08.590Z,53.00
2023-03-05T03:30:39.286Z,52.96
2023-03-05T03:33:09.985Z,52.88
2023-03-05T03:35:41.091Z,53.02
2023-03-05T03:38:12.035Z,52.98
2023-03-05T03:40:42.941Z,52.95
2023-03-05T03:43:13.667Z,52.94
2023-03-05T03:45:46.014Z,53.12
2023-03-05T03:48:16.997Z,53.07
2023-03-05T03:50:48.196Z,53.08
2023-03-05T03:53:19.200Z,53.07
2023-03-05T03:55:50.047Z,53.09
2023-03-05T03:58:20.647Z,53.05
2023-03-05T04:00:51.317Z,53.01
2023-03-05T04:03:21.935Z,53.01
2023-03-05T04:05:52.678Z,52.98
2023-03-05T04:08:23.414Z,52.91
2023-03-05T04:10:54.154Z,53.02
2023-03-05T04:13:25.247Z,52.99
2023-03-05T04:15:56.327Z,52.94
2023-03-05T04:18:27.395Z,52.96
2023-03-05T04:20:58.228Z,53.03
2023-03-05T04:23:28.990Z,52.99
2023-03-05T04:25:59.812Z,53.05
2023-03-05T04:28:30.717Z,53.00
2023-03-05T04:31:01.470Z,53.01
2023-03-05T04:33:32.232Z,53.01
2023-03-05T04:36:03.193Z,53.11
2023-03-05T04:38:33.895Z,53.10
2023-03-05T04:41:04.649Z,53.03
2023-03-05T04:43:36.288Z,53.10
2023-03-05T04:46:07.695Z,53.14
2023-03-05T04:48:38.486Z,53.19
2023-03-05T04:51:09.634Z,53.21
2023-03-05T04:53:40.485Z,53.13
2023-03-05T04:56:11.902Z,53.21
2023-03-05T04:58:42.547Z,53.24
2023-03-05T05:01:13.267Z,53.32
2023-03-05T05:03:44.141Z,53.20
2023-03-05T05:06:14.768Z,53.24
2023-03-05T05:08:45.514Z,53.28
2023-03-05T05:11:17.162Z,53.32
2023-03-05T05:13:48.018Z,53.38
2023-03-05T05:16:19.033Z,53.37
2023-03-05T05:18:49.854Z,53.49
2023-03-05T05:21:20.542Z,53.46
2023-03-05T05:23:51.577Z,53.53
2023-03-05T05:26:22.227Z,53.49
2023-03-05T05:28:53.052Z,53.55
2023-03-05T05:31:23.871Z,53.55
2023-03-05T05:33:54.649Z,53.55
2023-03-05T05:36:25.291Z,53.56
2023-03-05T05:38:56.246Z,53.56
2023-03-05T05:41:26.951Z,53.44
2023-03-05T05:43:57.690Z,53.51
2023-03-05T05:46:29.123Z,53.51
2023-03-05T05:49:00.239Z,53.47
2023-03-05T05:51:31.108Z,53.45
2023-03-05T05:54:02.003Z,53.50
2023-03-05T05:56:34.151Z,53.60
2023-03-05T05:59:04.806Z,53.68
2023-03-05T06:01:36.500Z,53.53
2023-03-05T06:04:07.374Z,53.65
2023-03-05T06:06:38.254Z,53.67
2023-03-05T06:09:09.160Z,53.60
2023-03-05T06:11:39.959Z,53.64
2023-03-05T06:14:11.356Z,53.58
2023-03-05T06:16:42.626Z,53.67
2023-03-05T06:19:15.081Z,53.58
2023-03-05T06:21:46.130Z,53.46
2023-03-05T06:24:16.937Z,53.50
2023-03-05T06:26:48.767Z,53.60
2023-03-05T06:29:19.575Z,53.55
2023-03-05T06:31:50.473Z,53.63
2023-03-05T06:34:21.352Z,53.51
2023-03-05T06:36:52.090Z,53.51
2023-03-05T06:39:23.079Z,53.55
2023-03-05T06:41:54.794Z,53.55
2023-03-05T06:44:25.866Z,53.57
2023-03-05T06:46:56.989Z,53.56
2023-03-05T06:49:28.127Z,53.54
2023-03-05T06:51:58.967Z,53.51
2023-03-05T06:54:29.814Z,53.55
2023-03-05T06:57:00.652Z,53.53
2023-03-05T06:59:31.620Z,53.58
2023-03-05T07:02:02.587Z,53.58
2023-03-05T07:04:33.628Z,53.55
2023-03-05T07:07:06.973Z,53.55
2023-03-05T07:09:43.252Z,53.48
2023-03-05T07:12:14.679Z,53.39
2023-03-05T07:14:45.537Z,53.36
2023-03-05T07:17:16.581Z,53.35
2023-03-05T07:19:47.483Z,53.38
2023-03-05T07:22:18.369Z,53.38
2023-03-05T07:24:49.356Z,53.33
2023-03-05T07:27:20.155Z,53.09
2023-03-05T07:29:51.049Z,52.88
2023-03-05T07:32:21.893Z,52.79
2023-03-05T07:34:52.686Z,52.66
2023-03-05T07:37:23.505Z,52.44
2023-03-05T07:39:54.461Z,52.16
2023-03-05T07:42:26.122Z,51.96
2023-03-05T07:44:56.907Z,51.85
2023-03-05T07:47:28.106Z,51.70
2023-03-05T07:49:58.996Z,51.54
2023-03-05T07:52:29.773Z,51.69
2023-03-05T07:55:00.717Z,51.54
2023-03-05T07:57:31.982Z,51.65
2023-03-05T08:00:03.168Z,51.53
2023-03-05T08:02:34.000Z,51.43
2023-03-05T08:05:05.460Z,51.43
2023-03-05T08:07:36.459Z,51.35
2023-03-05T08:10:09.653Z,51.28
2023-03-05T08:12:40.462Z,51.20
2023-03-05T08:15:13.130Z,51.20
2023-03-05T08:17:44.370Z,51.22
2023-03-05T08:20:16.184Z,51.21
2023-03-05T08:22:47.536Z,51.34
2023-03-05T08:25:18.877Z,51.37
2023-03-05T08:27:50.760Z,51.45
2023-03-05T08:30:27.539Z,51.59
2023-03-05T08:32:58.579Z,51.59
2023-03-05T08:35:29.468Z,51.51
2023-03-05T08:38:00.756Z,51.56
2023-03-05T08:40:31.603Z,51.51
2023-03-05T08:43:02.642Z,51.51
2023-03-05T08:45:33.691Z,51.49
2023-03-05T08:48:04.729Z,51.49
2023-03-05T08:50:38.905Z,51.46
2023-03-05T08:53:09.889Z,51.47
2023-03-05T08:55:43.252Z,51.53
2023-03-05T08:58:14.866Z,51.37
2023-03-05T09:00:46.102Z,51.43
2023-03-05T09:03:16.901Z,51.46
2023-03-05T09:05:48.048Z,51.41
2023-03-05T09:08:19.350Z,51.42
2023-03-05T09:10:50.231Z,51.44
2023-03-05T09:13:21.118Z,51.46
2023-03-05T09:15:58.688Z,51.50
2023-03-05T09:18:29.675Z,51.51
2023-03-05T09:21:05.082Z,51.51
2023-03-05T09:23:36.194Z,51.57
2023-03-05T09:26:08.632Z,51.57
2023-03-05T09:28:39.746Z,51.54
2023-03-05T09:31:11.689Z,51.49
2023-03-05T09:33:43.392Z,51.46
2023-03-05T09:36:22.618Z,51.55
2023-03-05T09:38:54.053Z,51.52
2023-03-05T09:41:37.087Z,51.49
2023-03-05T09:44:21.141Z,51.46
2023-03-05T09:46:56.025Z,51.54
2023-03-05T09:49:50.959Z,51.56
2023-03-05T09:52:30.664Z,51.73
2023-03-05T09:55:02.794Z,51.85
2023-03-05T09:57:41.081Z,52.00
2023-03-05T10:00:31.441Z,52.20
2023-03-05T10:03:06.685Z,52.25
2023-03-05T10:05:52.446Z,52.34
2023-03-05T10:08:31.326Z,52.39
2023-03-05T10:11:08.090Z,52.40
2023-03-05T10:13:44.083Z,52.42
2023-03-05T10:16:35.199Z,52.52
2023-03-05T10:19:12.163Z,52.40
2023-03-05T10:21:51.731Z,52.41
2023-03-05T10:24:38.106Z,52.43
2023-03-05T10:27:15.880Z,52.40
2023-03-05T10:30:05.406Z,52.40
2023-03-05T10:32:48.466Z,52.27
2023-03-05T10:35:47.774Z,52.26
2023-03-05T10:38:37.401Z,52.18
2023-03-05T10:41:18.361Z,52.08
2023-03-05T10:43:57.491Z,52.05
2023-03-05T10:46:36.472Z,52.13
2023-03-05T10:49:16.814Z,52.02
2023-03-05T10:51:53.370Z,51.97
2023-03-05T10:54:29.841Z,51.91
2023-03-05T10:57:15.399Z,52.05
2023-03-05T10:59:49.014Z,52.00
2023-03-05T11:02:21.723Z,51.95
2023-03-05T11:04:54.807Z,52.01
2023-03-05T11:07:39.539Z,51.90
2023-03-05T11:10:27.535Z,51.87
2023-03-05T11:13:01.676Z,51.81
2023-03-05T11:15:33.564Z,51.69
2023-03-05T11:18:24.427Z,51.71
2023-03-05T11:21:07.809Z,51.64
2023-03-05T11:23:39.113Z,51.57
2023-03-05T11:26:23.580Z,51.61
2023-03-05T11:29:03.325Z,51.52
2023-03-05T11:31:35.374Z,51.42
2023-03-05T11:34:11.039Z,51.36
2023-03-05T11:36:44.582Z,51.41
2023-03-05T11:39:22.251Z,51.40
2023-03-05T11:41:57.585Z,51.31
2023-03-05T11:44:31.778Z,51.38
2023-03-05T11:47:08.868Z,51.33
2023-03-05T11:49:46.223Z,51.37
2023-03-05T11:52:23.090Z,51.29
2023-03-05T11:55:04.317Z,51.22
2023-03-05T11:57:44.019Z,51.16
2023-03-05T12:00:20.378Z,51.06
2023-03-05T12:02:56.756Z,51.03
2023-03-05T12:05:29.105Z,51.10
2023-03-05T12:08:03.140Z,51.13
2023-03-05T12:10:34.399Z,50.92
2023-03-05T12:13:15.381Z,50.73
2023-03-05T12:16:00.279Z,51.10
2023-03-05T12:18:41.034Z,50.80
2023-03-05T12:21:26.218Z,50.77
2023-03-05T12:24:01.610Z,50.71
2023-03-05T12:27:07.657Z,50.87
2023-03-05T12:29:45.396Z,50.72
2023-03-05T12:33:01.179Z,50.60
2023-03-05T12:35:37.716Z,50.62
2023-03-05T12:38:31.938Z,50.59
2023-03-05T12:41:43.107Z,50.56
2023-03-05T12:44:21.115Z,50.33
2023-03-05T12:47:19.440Z,50.38
2023-03-05T12:49:53.371Z,49.56
2023-03-05T12:52:26.227Z,48.97
2023-03-05T12:55:24.287Z,49.59
2023-03-05T12:58:01.588Z,49.85
2023-03-05T13:00:40.398Z,49.79
2023-03-05T13:03:19.063Z,49.76
2023-03-05T13:05:57.062Z,49.91
2023-03-05T13:08:30.577Z,49.99
2023-03-05T13:11:06.265Z,50.01
2023-03-05T13:13:39.614Z,49.97
2023-03-05T13:16:20.161Z,50.11
2023-03-05T13:18:53.542Z,50.09
2023-03-05T13:21:29.278Z,50.02
2023-03-05T13:24:02.236Z,50.05
2023-03-05T13:26:38.009Z,49.95
2023-03-05T13:29:14.223Z,49.97
2023-03-05T13:31:47.366Z,50.07
2023-03-05T13:34:25.421Z,50.25
2023-03-05T13:37:00.943Z,50.09
2023-03-05T13:39:34.927Z,48.85
2023-03-05T13:42:08.851Z,48.79
2023-03-05T13:44:39.818Z,48.90
2023-03-05T13:47:19.949Z,49.11
2023-03-05T13:50:00.075Z,49.10
2023-03-05T13:52:33.332Z,49.22
2023-03-05T13:55:06.065Z,49.26
2023-03-05T13:57:40.052Z,49.62
2023-03-05T14:00:32.001Z,49.46
2023-03-05T14:03:10.800Z,49.69
2023-03-05T14:05:46.169Z,49.47
2023-03-05T14:08:23.720Z,49.59
2023-03-05T14:10:57.672Z,49.69
2023-03-05T14:13:29.208Z,49.68
2023-03-05T14:16:09.816Z,49.75
2023-03-05T14:18:53.107Z,49.88
2023-03-05T14:21:27.718Z,49.96
2023-03-05T14:23:58.695Z,49.75
2023-03-05T14:26:32.756Z,49.87
2023-03-05T14:29:13.612Z,49.89
2023-03-05T14:31:51.916Z,49.84
2023-03-05T14:34:28.438Z,49.98
2023-03-05T14:37:03.418Z,49.90
2023-03-05T14:39:43.419Z,50.01
2023-03-05T14:42:31.384Z,49.95
2023-03-05T14:45:10.864Z,50.16
2023-03-05T14:47:42.217Z,50.15
2023-03-05T14:50:19.094Z,50.14
2023-03-05T14:52:52.476Z,50.14
2023-03-05T14:55:25.548Z,50.13
2023-03-05T14:58:02.514Z,50.40
2023-03-05T15:00:33.840Z,50.30
2023-03-05T15:03:05.010Z,50.16
2023-03-05T15:05:38.105Z,50.34
2023-03-05T15:08:15.062Z,50.35
2023-03-05T15:10:46.026Z,50.25
2023-03-05T15:13:17.778Z,50.26
2023-03-05T15:15:50.174Z,50.25
2023-03-05T15:18:23.863Z,50.31
2023-03-05T15:20:54.972Z,50.22
2023-03-05T15:23:25.984Z,50.25
2023-03-05T15:25:57.031Z,50.36
2023-03-05T15:28:27.951Z,50.11
2023-03-05T15:31:00.304Z,50.38
2023-03-05T15:33:32.169Z,50.30
2023-03-05T15:36:03.926Z,50.17
2023-03-05T15:38:35.251Z,50.13
2023-03-05T15:41:06.532Z,50.24
2023-03-05T15:43:38.192Z,50.37
2023-03-05T15:46:09.638Z,50.15
2023-03-05T15:48:44.027Z,50.27
2023-03-05T15:51:15.428Z,50.37
2023-03-05T15:53:46.676Z,50.17
2023-03-05T15:56:20.980Z,50.18
2023-03-05T15:58:53.518Z,50.47
2023-03-05T16:01:24.563Z,50.40
2023-03-05T16:03:56.189Z,50.33
2023-03-05T16:06:27.676Z,50.23
2023-03-05T16:09:03.674Z,50.28
2023-03-05T16:11:38.420Z,50.03
2023-03-05T16:14:11.364Z,50.20
2023-03-05T16:16:42.689Z,50.38
2023-03-05T16:19:15.551Z,50.09
2023-03-05T16:21:47.110Z,50.04
2023-03-05T16:24:18.254Z,50.06
2023-03-05T16:26:49.117Z,50.07
2023-03-05T16:29:20.202Z,50.26
2023-03-05T16:31:51.372Z,50.20
2023-03-05T16:34:22.472Z,50.27
2023-03-05T16:36:54.508Z,50.36
2023-03-05T16:39:25.559Z,50.49
2023-03-05T16:41:57.831Z,50.43
2023-03-05T16:44:28.833Z,50.44
2023-03-05T16:46:59.827Z,50.53
2023-03-05T16:49:30.926Z,50.46
2023-03-05T16:52:16.214Z,50.33
2023-03-05T16:54:49.933Z,50.53
2023-03-05T16:57:23.743Z,50.37
2023-03-05T16:59:53.079Z,50.19
2023-03-05T17:02:24.346Z,50.42
2023-03-05T17:04:56.411Z,50.49
2023-03-05T17:07:27.600Z,50.47
2023-03-05T17:09:58.698Z,50.52
2023-03-05T17:12:29.616Z,50.59
2023-03-05T17:15:00.437Z,50.75
2023-03-05T17:17:31.946Z,50.67
2023-03-05T17:20:03.044Z,50.79
2023-03-05T17:22:34.199Z,50.81
2023-03-05T17:25:06.041Z,50.74
2023-03-05T17:27:38.124Z,50.78
2023-03-05T17:30:10.796Z,50.81
2023-03-05T17:32:41.814Z,50.56
2023-03-05T17:35:20.127Z,50.88
2023-03-05T17:37:51.712Z,50.81
2023-03-05T17:40:23.788Z,50.97
2023-03-05T17:42:55.246Z,50.68
2023-03-05T17:45:26.533Z,50.88
2023-03-05T17:47:58.735Z,50.70
2023-03-05T17:50:29.927Z,50.92
2023-03-05T17:53:00.866Z,50.78
2023-03-05T17:55:31.814Z,50.74
2023-03-05T17:58:02.732Z,50.76
2023-03-05T18:00:34.483Z,50.34
2023-03-05T18:03:06.150Z,49.36
2023-03-05T18:05:37.442Z,49.15
2023-03-05T18:08:08.689Z,48.62
2023-03-05T18:10:40.003Z,49.15
2023-03-05T18:13:11.157Z,49.46
2023-03-05T18:15:47.711Z,49.64
2023-03-05T18:18:19.262Z,49.71
2023-03-05T18:20:50.441Z,49.87
2023-03-05T18:23:21.550Z,49.74
2023-03-05T18:25:52.615Z,49.89
2023-03-05T18:28:25.879Z,49.74
2023-03-05T18:30:56.913Z,49.90
2023-03-05T18:33:28.526Z,49.85
2023-03-05T18:36:00.552Z,49.95
2023-03-05T18:38:33.568Z,49.14
2023-03-05T18:41:06.370Z,48.90
2023-03-05T18:43:37.596Z,49.02
2023-03-05T18:46:08.760Z,49.01
2023-03-05T18:48:40.192Z,49.11
2023-03-05T18:51:17.493Z,49.09
2023-03-05T18:53:48.830Z,49.09
2023-03-05T18:56:19.889Z,48.90
2023-03-05T18:58:51.024Z,48.99
2023-03-05T19:01:23.914Z,48.93
2023-03-05T19:03:55.343Z,49.05
2023-03-05T19:06:26.549Z,49.11
2023-03-05T19:08:59.450Z,49.13
2023-03-05T19:11:30.989Z,48.93
2023-03-05T19:14:04.451Z,48.82
2023-03-05T19:16:40.688Z,48.91
2023-03-05T19:19:16.602Z,48.90
2023-03-05T19:21:49.062Z,49.03
2023-03-05T19:24:21.100Z,48.91
2023-03-05T19:26:55.507Z,48.89
2023-03-05T19:29:30.284Z,48.75
2023-03-05T19:32:01.299Z,48.86
2023-03-05T19:34:32.592Z,48.89
2023-03-05T19:37:03.681Z,48.66
2023-03-05T19:39:35.295Z,48.92
2023-03-05T19:42:06.808Z,48.94
2023-03-05T19:44:38.167Z,49.15
2023-03-05T19:47:09.364Z,49.08
2023-03-05T19:49:40.461Z,49.09
2023-03-05T19:52:11.454Z,49.27
2023-03-05T19:54:42.478Z,49.22
2023-03-05T19:57:13.541Z,49.12
2023-03-05T19:59:46.917Z,49.21
2023-03-05T20:02:21.757Z,48.94
2023-03-05T20:04:52.837Z,49.34
2023-03-05T20:07:23.758Z,49.36
2023-03-05T20:09:55.641Z,49.54
2023-03-05T20:12:27.235Z,49.97
2023-03-05T20:14:58.395Z,49.87
2023-03-05T20:17:29.371Z,49.95
2023-03-05T20:20:00.390Z,49.06
2023-03-05T20:22:31.502Z,48.37
2023-03-05T20:25:02.282Z,48.80
2023-03-05T20:27:34.586Z,49.25
2023-03-05T20:30:06.449Z,49.41
2023-03-05T20:32:37.905Z,49.10
2023-03-05T20:35:13.980Z,49.30
2023-03-05T20:37:50.181Z,49.48
2023-03-05T20:40:21.677Z,49.54
2023-03-05T20:42:53.067Z,49.65
2023-03-05T20:45:24.163Z,49.61
2023-03-05T20:47:55.180Z,49.66
2023-03-05T20:50:28.036Z,49.75
2023-03-05T20:53:00.433Z,49.66
2023-03-05T20:55:32.720Z,49.85
2023-03-05T20:58:03.779Z,49.82
2023-03-05T21:00:34.683Z,49.99
2023-03-05T21:03:06.242Z,49.98
2023-03-05T21:05:38.652Z,50.04
2023-03-05T21:08:09.601Z,50.13
2023-03-05T21:10:40.945Z,50.17
2023-03-05T21:13:11.891Z,49.94
2023-03-05T21:15:43.036Z,50.23
2023-03-05T21:18:14.137Z,50.13
2023-03-05T21:20:45.226Z,50.29
2023-03-05T21:23:16.170Z,50.17
2023-03-05T21:25:47.238Z,50.07
2023-03-05T21:28:18.836Z,50.34
2023-03-05T21:30:52.136Z,50.19
2023-03-05T21:33:25.737Z,50.09
2023-03-05T21:35:58.164Z,50.10
2023-03-05T21:38:30.628Z,50.27
2023-03-05T21:41:02.227Z,50.12
2023-03-05T21:43:33.619Z,50.15
2023-03-05T21:46:05.359Z,50.21
2023-03-05T21:48:36.223Z,50.17
2023-03-05T21:51:13.712Z,50.25
2023-03-05T21:53:44.789Z,50.34
2023-03-05T21:56:24.115Z,50.50
2023-03-05T21:58:55.568Z,50.30
2023-03-05T22:01:26.585Z,50.38
2023-03-05T22:03:57.534Z,50.28
2023-03-05T22:06:28.833Z,50.47
2023-03-05T22:08:59.643Z,50.31
2023-03-05T22:11:30.788Z,50.49
2023-03-05T22:14:01.734Z,50.31
2023-03-05T22:16:32.923Z,50.23
2023-03-05T22:19:04.423Z,50.37
2023-03-05T22:21:35.186Z,50.58
2023-03-05T22:24:06.724Z,50.55
2023-03-05T22:26:39.506Z,50.36
2023-03-05T22:29:11.879Z,50.51
2023-03-05T22:31:43.156Z,50.45
2023-03-05T22:34:14.106Z,50.55
2023-03-05T22:36:45.025Z,50.50
2023-03-05T22:39:15.861Z,50.44
2023-03-05T22:41:47.003Z,50.44
2023-03-05T22:44:19.376Z,50.39
2023-03-05T22:46:50.825Z,50.51
2023-03-05T22:49:21.759Z,50.52
2023-03-05T22:51:52.613Z,50.45
2023-03-05T22:54:23.757Z,50.52
2023-03-05T22:56:54.617Z,50.53
2023-03-05T22:59:25.536Z,50.58
2023-03-05T23:01:56.377Z,50.60
2023-03-05T23:04:40.325Z,50.63
2023-03-05T23:07:11.264Z,50.62
2023-03-05T23:09:42.019Z,50.68
2023-03-05T23:12:13.630Z,50.59
2023-03-05T23:14:44.507Z,50.64
2023-03-05T23:17:15.685Z,50.81
2023-03-05T23:19:46.471Z,50.93
2023-03-05T23:22:17.343Z,50.90
2023-03-05T23:24:48.272Z,50.90
2023-03-05T23:27:20.137Z,50.85
2023-03-05T23:29:59.382Z,51.08
2023-03-05T23:32:32.192Z,51.01
2023-03-05T23:35:03.184Z,50.87
2023-03-05T23:37:34.071Z,51.02
2023-03-05T23:40:05.379Z,51.04
2023-03-05T23:42:36.121Z,50.97
2023-03-05T23:45:10.485Z,50.91
2023-03-05T23:47:41.922Z,50.91
2023-03-05T23:50:16.642Z,50.87
2023-03-05T23:52:48.209Z,51.12
2023-03-05T23:55:21.036Z,51.18
2023-03-05T23:57:52.149Z,51.22
